Time;durP1;ratioP1;P1;durP2;ratioP2;P2;SDS_P1;SDS_P2;PMS_P1;PMS_P2;Temp;Humidity;BMP_temperature;BMP_pressure;BME280_temperature;BME280_humidity;BME280_pressure;Samples;Min_cycle;Max_cycle;Signal;HPM_P1;HPM_P2
2022/06/23 00:02:21;;;;;;;15.70;5.70;;;19.10;99.90;;;;;;4996350;28;20523;-65
2022/06/23 00:04:49;;;;;;;16.70;7.80;;;19.00;99.90;;;;;;4996279;28;20470;-65
2022/06/23 00:07:20;;;;;;;9.83;5.87;;;19.00;99.90;;;;;;4995858;28;20844;-65
2022/06/23 00:09:51;;;;;;;8.83;5.47;;;19.00;99.90;;;;;;4996145;28;20486;-65
2022/06/23 00:12:29;;;;;;;10.83;5.03;;;19.00;99.90;;;;;;4995931;28;20522;-65
2022/06/23 00:15:17;;;;;;;13.90;6.50;;;19.00;99.90;;;;;;4995781;28;20526;-65
2022/06/23 00:17:55;;;;;;;19.37;7.27;;;19.00;99.90;;;;;;4996001;28;20495;-65
2022/06/23 00:20:27;;;;;;;12.20;5.73;;;19.00;99.90;;;;;;4995722;28;20534;-65
2022/06/23 00:22:56;;;;;;;13.77;5.60;;;19.00;99.90;;;;;;4995473;28;21005;-65
2022/06/23 00:25:35;;;;;;;12.30;6.43;;;19.00;99.90;;;;;;4995902;28;20497;-65
2022/06/23 00:28:03;;;;;;;10.67;5.30;;;18.90;99.90;;;;;;4995417;28;20487;-65
2022/06/23 00:30:38;;;;;;;14.73;5.97;;;18.80;99.90;;;;;;4995990;28;20440;-65
2022/06/23 00:33:15;;;;;;;13.13;6.43;;;18.70;99.90;;;;;;4995646;28;20565;-65
2022/06/23 00:35:43;;;;;;;11.23;6.63;;;18.70;99.90;;;;;;4995681;28;20481;-65
2022/06/23 00:38:22;;;;;;;14.43;6.80;;;18.60;99.90;;;;;;4995616;28;20443;-66
2022/06/23 00:40:49;;;;;;;13.40;5.57;;;18.60;99.90;;;;;;4995704;28;20819;-65
2022/06/23 00:43:18;;;;;;;20.50;6.83;;;18.60;99.90;;;;;;4994832;28;20458;-65
2022/06/23 00:45:53;;;;;;;11.40;5.30;;;18.60;99.90;;;;;;4995386;28;20440;-65
2022/06/23 00:48:29;;;;;;;10.73;5.70;;;18.60;99.90;;;;;;4994960;28;20518;-66
2022/06/23 00:51:03;;;;;;;15.10;6.00;;;18.60;99.90;;;;;;4995503;28;20527;-65
2022/06/23 00:53:36;;;;;;;15.80;6.43;;;18.50;99.90;;;;;;4995225;28;20450;-65
2022/06/23 00:56:15;;;;;;;13.17;6.23;;;18.50;99.90;;;;;;4995398;28;20539;-65
2022/06/23 00:58:50;;;;;;;10.20;6.20;;;18.50;99.90;;;;;;4994777;28;20444;-65
2022/06/23 01:01:27;;;;;;;16.30;6.00;;;18.50;99.90;;;;;;4995251;28;20534;-65
2022/06/23 01:04:01;;;;;;;13.97;7.47;;;18.50;99.90;;;;;;4995074;28;20459;-65
2022/06/23 01:06:36;;;;;;;10.00;5.80;;;18.40;99.90;;;;;;4994769;28;20510;-66
2022/06/23 01:09:14;;;;;;;12.70;6.07;;;18.40;99.90;;;;;;4994917;28;20534;-65
2022/06/23 01:11:44;;;;;;;10.47;6.40;;;18.40;99.90;;;;;;4995051;28;20518;-65
2022/06/23 01:14:22;;;;;;;9.77;5.70;;;18.40;99.90;;;;;;4994342;28;20471;-65
2022/06/23 01:16:54;;;;;;;11.70;7.33;;;18.30;99.90;;;;;;4994933;28;20493;-65
2022/06/23 01:20:01;;;;;;;12.73;6.57;;;18.20;99.90;;;;;;4994640;28;20439;-65
2022/06/23 01:22:42;;;;;;;11.90;6.00;;;18.10;99.90;;;;;;4994788;28;20518;-65
2022/06/23 01:25:29;;;;;;;13.57;7.10;;;18.10;99.90;;;;;;4994585;28;20432;-65
2022/06/23 01:28:03;;;;;;;11.57;6.93;;;18.10;99.90;;;;;;4994337;28;20586;-65
2022/06/23 01:30:34;;;;;;;12.60;6.20;;;18.10;99.90;;;;;;4994245;28;20455;-65
2022/06/23 01:33:13;;;;;;;13.57;7.13;;;18.10;99.90;;;;;;4994729;28;20530;-67
2022/06/23 01:35:45;;;;;;;7.90;5.80;;;18.20;99.90;;;;;;4994384;28;20439;-65
2022/06/23 01:38:16;;;;;;;13.87;7.90;;;18.20;99.90;;;;;;4994027;28;20510;-66
2022/06/23 01:40:50;;;;;;;13.10;5.80;;;18.20;99.90;;;;;;4994444;28;20793;-65
2022/06/23 01:43:23;;;;;;;10.63;6.70;;;18.10;99.90;;;;;;4994248;28;20530;-65
2022/06/23 01:45:55;;;;;;;9.97;6.00;;;18.10;99.90;;;;;;4994365;28;20483;-69
2022/06/23 01:51:06;;;;;;;18.43;6.80;;;18.10;99.90;;;;;;4992955;28;20431;-66
2022/06/23 01:53:34;;;;;;;11.90;6.50;;;18.00;99.90;;;;;;4994036;28;20451;-65
2022/06/23 01:56:10;;;;;;;14.30;7.17;;;18.10;99.90;;;;;;4994145;28;20439;-66
2022/06/23 01:58:48;;;;;;;14.27;6.57;;;18.10;99.90;;;;;;4993861;28;20470;-65
2022/06/23 02:01:20;;;;;;;11.20;6.23;;;18.10;99.90;;;;;;4993935;28;20475;-65
2022/06/23 02:03:55;;;;;;;13.30;6.50;;;18.10;99.90;;;;;;4993743;28;20436;-65
2022/06/23 02:06:27;;;;;;;17.60;8.50;;;18.00;99.90;;;;;;4993784;28;20917;-65
2022/06/23 02:09:02;;;;;;;12.40;5.70;;;18.10;99.90;;;;;;4993243;28;20435;-65
2022/06/23 02:11:37;;;;;;;12.80;6.10;;;18.10;99.90;;;;;;4993775;28;20525;-65
2022/06/23 02:14:14;;;;;;;12.33;5.20;;;18.10;99.90;;;;;;4993440;28;20471;-66
2022/06/23 02:16:46;;;;;;;13.17;6.27;;;18.10;99.90;;;;;;4993837;28;20440;-65
2022/06/23 02:19:21;;;;;;;16.70;6.80;;;18.00;99.90;;;;;;4993645;28;20472;-65
2022/06/23 02:21:53;;;;;;;11.87;5.67;;;18.00;99.90;;;;;;4993483;28;20522;-65
2022/06/23 02:24:26;;;;;;;12.37;6.80;;;18.00;99.90;;;;;;4993694;28;20518;-65
2022/06/23 02:27:02;;;;;;;12.07;6.80;;;18.00;99.90;;;;;;4993127;28;20947;-65
2022/06/23 02:29:39;;;;;;;14.83;6.37;;;18.00;99.90;;;;;;4993122;28;20821;-65
2022/06/23 02:32:15;;;;;;;11.63;5.60;;;18.10;99.90;;;;;;4993207;28;20479;-65
2022/06/23 02:34:46;;;;;;;15.37;6.50;;;18.00;99.90;;;;;;4993589;28;20538;-65
2022/06/23 02:37:51;;;;;;;10.73;5.30;;;18.00;99.90;;;;;;4993124;28;20486;-65
2022/06/23 02:40:23;;;;;;;10.43;6.97;;;18.00;99.90;;;;;;4993072;28;20915;-65
2022/06/23 02:42:56;;;;;;;11.60;6.63;;;17.90;99.90;;;;;;4993426;28;20526;-65
2022/06/23 02:45:52;;;;;;;11.10;5.80;;;17.90;99.90;;;;;;4992948;28;20526;-65
2022/06/23 02:48:41;;;;;;;15.40;6.03;;;17.90;99.90;;;;;;4992777;28;20570;-65
2022/06/23 02:51:20;;;;;;;9.87;6.20;;;17.80;99.90;;;;;;4993023;28;20531;-65
2022/06/23 02:54:16;;;;;;;10.43;6.13;;;17.80;99.90;;;;;;4993326;28;20448;-65
2022/06/23 02:57:12;;;;;;;11.60;5.50;;;17.70;99.90;;;;;;4990605;28;20455;-65
2022/06/23 02:59:46;;;;;;;10.20;6.40;;;17.70;99.90;;;;;;4993088;28;20502;-65
2022/06/23 03:02:22;;;;;;;9.50;5.27;;;17.70;99.90;;;;;;4993325;28;20518;-65
2022/06/23 03:04:53;;;;;;;12.40;5.93;;;17.70;99.90;;;;;;4992825;28;20949;-65
2022/06/23 03:07:27;;;;;;;8.70;5.73;;;17.70;99.90;;;;;;4993023;28;20479;-65
2022/06/23 03:10:05;;;;;;;10.13;5.20;;;17.70;99.90;;;;;;4993084;28;20561;-65
2022/06/23 03:12:40;;;;;;;7.63;4.67;;;17.70;99.90;;;;;;4993205;28;20479;-66
2022/06/23 03:15:14;;;;;;;10.87;5.10;;;17.70;99.90;;;;;;4993235;28;20525;-65
2022/06/23 03:17:47;;;;;;;6.90;4.63;;;17.70;99.90;;;;;;4993025;28;20533;-66
2022/06/23 03:20:27;;;;;;;6.70;5.47;;;17.70;99.90;;;;;;4993375;28;20839;-65
2022/06/23 03:23:00;;;;;;;8.80;4.70;;;17.70;99.90;;;;;;4996902;28;20529;-65
2022/06/23 03:25:33;;;;;;;11.27;4.70;;;17.70;99.90;;;;;;4997064;28;20543;-65
2022/06/23 03:28:09;;;;;;;9.00;4.37;;;17.70;99.90;;;;;;4996752;28;20498;-65
2022/06/23 03:30:42;;;;;;;11.83;5.53;;;17.70;99.90;;;;;;4996944;28;20501;-65
2022/06/23 03:33:18;;;;;;;10.03;4.63;;;17.70;99.90;;;;;;4996798;28;20443;-65
2022/06/23 03:35:51;;;;;;;11.00;4.83;;;17.70;99.90;;;;;;4996752;28;20530;-65
2022/06/23 03:41:36;;;;;;;7.80;4.40;;;17.70;99.90;;;;;;4996315;28;20446;-65
2022/06/23 03:44:07;;;;;;;14.97;6.20;;;17.70;99.90;;;;;;4996608;28;20925;-66
2022/06/23 03:46:39;;;;;;;7.67;5.07;;;17.60;99.90;;;;;;4996691;28;20494;-66
2022/06/23 03:49:17;;;;;;;8.13;4.30;;;17.50;99.90;;;;;;4996291;28;20483;-65
2022/06/23 03:51:51;;;;;;;10.97;5.67;;;17.50;99.90;;;;;;4996282;28;20958;-65
2022/06/23 03:54:22;;;;;;;9.70;5.20;;;17.50;99.90;;;;;;4996344;28;20844;-65
2022/06/23 03:56:57;;;;;;;8.53;4.23;;;17.50;99.90;;;;;;4996349;28;20923;-65
2022/06/23 03:59:30;;;;;;;7.90;6.20;;;17.40;99.90;;;;;;4996208;28;20446;-65
2022/06/23 04:02:01;;;;;;;11.50;4.57;;;17.40;99.90;;;;;;4996640;28;20518;-65
2022/06/23 04:04:46;;;;;;;7.57;5.70;;;17.50;99.90;;;;;;4996645;28;20487;-65
2022/06/23 04:07:35;;;;;;;9.10;4.20;;;17.50;99.90;;;;;;4996419;28;20539;-65
2022/06/23 04:10:04;;;;;;;15.23;4.90;;;17.60;99.90;;;;;;4996492;28;20430;-65
2022/06/23 04:12:32;;;;;;;15.23;6.00;;;17.50;99.90;;;;;;4996371;28;20850;-66
2022/06/23 04:15:05;;;;;;;7.83;5.50;;;17.50;99.90;;;;;;4996424;28;20535;-65
2022/06/23 04:17:38;;;;;;;8.37;4.93;;;17.50;99.90;;;;;;4996260;28;20436;-66
2022/06/23 04:20:17;;;;;;;10.50;5.53;;;17.50;99.90;;;;;;4996185;28;20463;-65
2022/06/23 04:22:49;;;;;;;9.70;6.00;;;17.40;99.90;;;;;;4996222;28;20444;-65
2022/06/23 04:25:20;;;;;;;9.13;5.30;;;17.50;99.90;;;;;;4996089;28;21005;-65
2022/06/23 04:27:51;;;;;;;9.30;4.93;;;17.50;99.90;;;;;;4995399;28;20562;-65
2022/06/23 04:30:27;;;;;;;7.40;4.50;;;17.50;99.90;;;;;;4996171;28;20486;-65
2022/06/23 04:32:55;;;;;;;6.50;4.57;;;17.50;99.90;;;;;;4994922;28;20867;-65
2022/06/23 04:35:28;;;;;;;9.50;5.10;;;17.50;99.90;;;;;;4995789;28;20498;-65
2022/06/23 04:38:01;;;;;;;9.63;4.50;;;17.60;99.90;;;;;;4996060;28;20499;-65
2022/06/23 04:40:32;;;;;;;7.10;4.70;;;17.70;99.90;;;;;;4995772;28;20762;-65
2022/06/23 04:43:03;;;;;;;14.53;3.97;;;17.70;99.90;;;;;;4995824;28;21344;-65
2022/06/23 04:45:44;;;;;;;5.67;4.03;;;17.80;99.90;;;;;;4995659;28;20498;-65
2022/06/23 04:48:18;;;;;;;6.40;4.37;;;17.90;99.90;;;;;;4995411;28;20562;-65
2022/06/23 04:50:51;;;;;;;6.37;3.30;;;18.00;99.90;;;;;;4995771;28;20545;-65
2022/06/23 04:53:25;;;;;;;8.47;4.00;;;18.00;99.90;;;;;;4995778;28;20560;-65
2022/06/23 04:56:09;;;;;;;12.60;3.90;;;18.00;99.90;;;;;;4995802;28;20525;-65
2022/06/23 04:58:41;;;;;;;8.53;3.40;;;18.10;99.90;;;;;;4995507;28;20522;-66
2022/06/23 05:01:13;;;;;;;7.43;3.07;;;18.20;99.90;;;;;;4995452;28;20439;-65
2022/06/23 05:03:47;;;;;;;3.80;2.90;;;18.20;99.90;;;;;;4995670;28;20475;-65
2022/06/23 05:06:26;;;;;;;6.60;3.80;;;18.30;99.90;;;;;;4995605;28;20443;-65
2022/06/23 05:08:54;;;;;;;12.60;3.70;;;18.50;99.90;;;;;;4995299;28;20578;-65
2022/06/23 05:11:29;;;;;;;11.10;3.40;;;18.40;99.90;;;;;;4995247;28;20776;-65
2022/06/23 05:13:59;;;;;;;10.17;3.57;;;18.30;99.90;;;;;;4995363;28;20475;-65
2022/06/23 05:16:30;;;;;;;9.70;3.23;;;18.40;99.90;;;;;;4995430;28;20530;-65
2022/06/23 05:19:01;;;;;;;5.07;2.40;;;18.40;99.90;;;;;;4995294;28;20534;-65
2022/06/23 05:21:37;;;;;;;7.57;3.03;;;18.50;99.90;;;;;;4995435;28;20526;-65
2022/06/23 05:24:09;;;;;;;6.37;3.20;;;18.60;99.90;;;;;;4995397;28;20463;-65
2022/06/23 05:26:41;;;;;;;10.60;3.00;;;18.80;99.90;;;;;;4994927;28;20432;-65
2022/06/23 05:29:15;;;;;;;5.07;3.00;;;18.80;99.90;;;;;;4994412;28;20582;-65
2022/06/23 05:31:42;;;;;;;7.70;2.10;;;18.90;99.90;;;;;;4995041;28;20539;-65
2022/06/23 05:34:13;;;;;;;7.53;3.03;;;18.90;99.90;;;;;;4994270;28;20523;-66
2022/06/23 05:36:49;;;;;;;5.93;2.70;;;18.90;99.90;;;;;;4994818;28;21017;-65
2022/06/23 05:39:23;;;;;;;5.53;2.30;;;19.00;99.90;;;;;;4994856;28;20476;-65
2022/06/23 05:41:53;;;;;;;7.73;2.80;;;19.00;99.90;;;;;;4994522;28;20448;-65
2022/06/23 05:44:24;;;;;;;3.57;2.23;;;19.00;99.90;;;;;;4994677;28;20502;-65
2022/06/23 05:46:53;;;;;;;6.87;3.00;;;19.10;99.90;;;;;;4994697;28;20535;-65
2022/06/23 05:49:24;;;;;;;13.70;3.93;;;19.10;99.90;;;;;;4994387;28;20570;-65
2022/06/23 05:51:59;;;;;;;5.67;2.70;;;19.10;99.30;;;;;;4994138;28;20450;-65
2022/06/23 05:54:31;;;;;;;5.33;2.23;;;19.20;99.40;;;;;;4994312;28;20451;-65
2022/06/23 05:57:04;;;;;;;4.40;2.40;;;19.20;99.90;;;;;;4994582;28;20534;-65
2022/06/23 05:59:53;;;;;;;5.83;2.93;;;19.30;99.70;;;;;;4994618;28;20526;-65
2022/06/23 06:02:24;;;;;;;6.07;2.27;;;19.30;99.30;;;;;;4994546;28;20436;-65
2022/06/23 06:04:53;;;;;;;5.90;2.53;;;19.40;99.10;;;;;;4994399;28;20530;-65
2022/06/23 06:07:24;;;;;;;3.37;1.73;;;19.50;99.20;;;;;;4994018;28;20523;-66
2022/06/23 06:09:52;;;;;;;5.97;3.07;;;19.50;98.70;;;;;;4994187;28;20578;-65
2022/06/23 06:12:23;;;;;;;3.73;2.20;;;19.50;99.00;;;;;;4994121;28;20526;-66
2022/06/23 06:14:57;;;;;;;4.30;1.97;;;19.70;99.50;;;;;;4994250;28;20876;-65
2022/06/23 06:17:28;;;;;;;6.50;2.80;;;19.80;99.40;;;;;;4994395;28;20551;-65
2022/06/23 06:19:56;;;;;;;8.73;2.20;;;19.90;99.30;;;;;;4994306;28;20439;-65
2022/06/23 06:22:42;;;;;;;6.00;2.00;;;20.00;99.60;;;;;;4994288;28;20531;-65
2022/06/23 06:25:19;;;;;;;5.47;2.70;;;20.10;98.40;;;;;;4993775;28;20986;-66
2022/06/23 06:27:47;;;;;;;8.80;2.53;;;20.20;98.10;;;;;;4988322;28;21403;-65
2022/06/23 06:30:17;;;;;;;5.30;2.67;;;20.30;98.20;;;;;;4990790;28;20482;-65
2022/06/23 06:32:46;;;;;;;7.47;2.40;;;20.40;98.80;;;;;;4991202;28;20494;-66
2022/06/23 06:35:26;;;;;;;4.90;2.27;;;20.50;98.90;;;;;;4991310;28;20977;-65
2022/06/23 06:37:59;;;;;;;11.30;2.60;;;20.60;98.10;;;;;;4985622;28;20476;-71
2022/06/23 06:40:27;;;;;;;8.83;2.47;;;20.70;97.90;;;;;;4991074;28;20454;-66
2022/06/23 06:42:59;;;;;;;4.17;2.80;;;20.80;97.40;;;;;;4986995;28;21089;-67
2022/06/23 06:45:29;;;;;;;3.40;1.97;;;20.90;97.10;;;;;;4987316;28;21298;-66
2022/06/23 06:47:57;;;;;;;6.03;1.90;;;21.00;96.50;;;;;;4992179;28;20536;-65
2022/06/23 06:50:34;;;;;;;11.57;2.20;;;21.10;96.60;;;;;;4988633;28;20535;-65
2022/06/23 06:53:08;;;;;;;7.97;2.20;;;21.20;96.50;;;;;;4987333;28;20924;-66
2022/06/23 06:55:41;;;;;;;4.07;1.93;;;21.30;95.90;;;;;;4991124;28;20514;-66
2022/06/23 06:58:17;;;;;;;4.50;2.40;;;21.50;96.10;;;;;;4987078;28;20859;-66
2022/06/23 07:00:50;;;;;;;4.20;2.10;;;21.60;96.10;;;;;;4991362;28;20518;-65
2022/06/23 07:03:21;;;;;;;7.50;2.17;;;21.70;96.50;;;;;;4990135;28;20442;-66
2022/06/23 07:05:54;;;;;;;8.23;2.73;;;21.80;96.30;;;;;;4989792;28;20990;-65
2022/06/23 07:08:27;;;;;;;5.47;2.67;;;21.90;95.50;;;;;;4990289;28;20578;-67
2022/06/23 07:11:00;;;;;;;7.20;2.60;;;22.00;94.90;;;;;;4988342;28;20934;-65
2022/06/23 07:13:35;;;;;;;7.57;2.50;;;22.10;95.10;;;;;;4991081;28;20480;-66
2022/06/23 07:16:07;;;;;;;7.53;2.63;;;22.20;95.60;;;;;;4988608;28;20535;-67
2022/06/23 07:18:41;;;;;;;8.77;3.50;;;22.30;94.90;;;;;;4992085;28;20527;-66
2022/06/23 07:21:17;;;;;;;5.97;2.40;;;22.40;94.40;;;;;;4991361;28;20533;-65
2022/06/23 07:23:51;;;;;;;8.33;2.07;;;22.50;93.90;;;;;;4992038;28;20445;-65
2022/06/23 07:26:31;;;;;;;7.80;2.27;;;22.60;93.70;;;;;;4988416;28;20532;-65
2022/06/23 07:29:02;;;;;;;8.90;2.50;;;22.70;93.10;;;;;;4992573;28;20580;-65
2022/06/23 07:31:36;;;;;;;7.87;2.70;;;22.80;93.10;;;;;;4995245;28;20877;-65
2022/06/23 07:34:07;;;;;;;7.73;2.53;;;22.80;92.30;;;;;;4996115;28;20447;-67
2022/06/23 07:36:40;;;;;;;4.00;2.47;;;22.90;91.70;;;;;;4997344;28;20953;-67
2022/06/23 07:39:13;;;;;;;6.70;2.40;;;23.00;90.50;;;;;;4995831;28;20541;-65
2022/06/23 07:41:47;;;;;;;6.27;2.20;;;23.10;90.80;;;;;;4992198;28;20447;-66
2022/06/23 07:44:20;;;;;;;8.10;2.57;;;23.20;91.00;;;;;;4995252;28;20446;-69
2022/06/23 07:46:47;;;;;;;7.17;2.33;;;23.30;90.50;;;;;;4991604;28;20963;-66
2022/06/23 07:49:14;;;;;;;7.00;2.20;;;23.30;89.90;;;;;;4990987;28;20596;-66
2022/06/23 07:51:42;;;;;;;8.57;2.20;;;23.40;88.90;;;;;;4997818;28;20936;-66
2022/06/23 07:54:15;;;;;;;7.40;3.10;;;23.50;88.70;;;;;;4993803;28;20530;-65
2022/06/23 07:56:42;;;;;;;10.57;3.33;;;23.60;89.40;;;;;;4991726;28;20439;-67
2022/06/23 07:59:12;;;;;;;4.90;2.40;;;23.70;87.40;;;;;;4993738;28;20518;-66
2022/06/23 08:01:44;;;;;;;7.73;2.70;;;23.80;86.80;;;;;;4995000;28;20490;-66
2022/06/23 08:04:18;;;;;;;4.87;2.10;;;24.00;87.70;;;;;;4994661;28;20534;-66
2022/06/23 08:06:45;;;;;;;5.77;2.17;;;24.10;88.30;;;;;;4995061;28;20868;-66
2022/06/23 08:09:20;;;;;;;5.30;2.13;;;24.20;84.00;;;;;;4996582;28;20477;-66
2022/06/23 08:14:37;;;;;;;10.20;3.30;;;24.40;78.60;;;;;;4995679;28;20528;-65
2022/06/23 08:17:09;;;;;;;5.77;2.03;;;24.50;77.30;;;;;;4994572;28;20443;-66
2022/06/23 08:19:41;;;;;;;6.13;2.00;;;24.60;75.80;;;;;;4996064;28;20443;-66
2022/06/23 08:22:12;;;;;;;5.57;2.03;;;24.70;76.90;;;;;;4997191;28;20839;-65
2022/06/23 08:24:44;;;;;;;5.50;1.97;;;24.90;78.20;;;;;;4994461;28;20522;-65
2022/06/23 08:27:13;;;;;;;3.07;1.60;;;25.10;77.50;;;;;;4995576;28;20479;-71
2022/06/23 08:29:43;;;;;;;4.40;1.90;;;25.20;76.60;;;;;;4994741;28;20502;-67
2022/06/23 08:32:11;;;;;;;5.57;2.23;;;25.30;75.30;;;;;;4992862;28;20527;-66
2022/06/23 08:34:45;;;;;;;6.50;2.03;;;25.40;72.10;;;;;;4995641;28;20527;-66
2022/06/23 08:37:18;;;;;;;7.23;2.53;;;25.50;73.60;;;;;;4994001;28;20447;-65
2022/06/23 08:39:54;;;;;;;4.97;1.90;;;25.70;72.00;;;;;;4991570;28;20444;-65
2022/06/23 08:42:25;;;;;;;6.17;2.37;;;25.70;69.80;;;;;;4993587;28;20518;-66
2022/06/23 08:45:02;;;;;;;5.00;1.80;;;25.80;71.20;;;;;;4994717;28;20483;-65
2022/06/23 08:47:41;;;;;;;11.37;2.30;;;26.00;70.20;;;;;;4993775;28;20518;-66
2022/06/23 08:50:15;;;;;;;6.27;2.57;;;26.00;68.90;;;;;;4993293;28;20578;-66
2022/06/23 08:52:48;;;;;;;6.73;1.93;;;26.10;69.00;;;;;;4993965;28;20914;-66
2022/06/23 08:55:24;;;;;;;7.63;2.30;;;26.10;66.80;;;;;;4990847;28;20880;-66
2022/06/23 08:57:56;;;;;;;6.60;2.17;;;26.20;66.10;;;;;;4991892;28;20439;-66
2022/06/23 09:00:30;;;;;;;4.47;2.30;;;26.30;69.00;;;;;;4992459;28;21002;-65
2022/06/23 09:03:04;;;;;;;10.43;2.50;;;26.40;70.90;;;;;;4993549;28;20535;-67
2022/06/23 09:05:41;;;;;;;8.33;2.40;;;26.50;69.80;;;;;;4993975;28;20520;-65
2022/06/23 09:08:15;;;;;;;7.47;2.00;;;26.50;69.90;;;;;;4996282;28;20479;-67
2022/06/23 09:10:52;;;;;;;4.00;2.17;;;26.70;67.90;;;;;;5002706;28;20525;-66
2022/06/23 09:13:33;;;;;;;7.53;3.43;;;26.80;65.40;;;;;;4996687;28;20529;-66
2022/06/23 09:16:13;;;;;;;8.00;2.70;;;26.80;62.90;;;;;;4998075;28;20454;-66
2022/06/23 09:19:08;;;;;;;7.80;2.13;;;26.80;62.10;;;;;;4992078;28;20502;-67
2022/06/23 09:21:51;;;;;;;6.13;2.63;;;26.80;63.90;;;;;;4994262;28;20435;-67
2022/06/23 09:24:42;;;;;;;5.30;2.30;;;26.90;59.90;;;;;;4996832;28;20439;-67
2022/06/23 09:27:16;;;;;;;4.93;2.30;;;27.00;60.80;;;;;;4991566;28;20548;-66
2022/06/23 09:29:56;;;;;;;6.00;2.97;;;27.10;60.10;;;;;;4999086;28;20518;-65
2022/06/23 09:32:48;;;;;;;8.90;2.63;;;27.10;58.90;;;;;;4991318;28;20469;-66
2022/06/23 09:35:44;;;;;;;6.93;2.30;;;27.10;57.80;;;;;;4993604;28;20488;-68
2022/06/23 09:38:28;;;;;;;10.50;2.30;;;27.20;59.00;;;;;;4990773;28;20479;-66
2022/06/23 09:41:09;;;;;;;8.10;2.60;;;27.30;60.10;;;;;;4993588;28;20530;-66
2022/06/23 09:44:11;;;;;;;9.83;1.83;;;27.40;58.30;;;;;;4992184;28;20439;-68
2022/06/23 09:46:57;;;;;;;6.57;1.93;;;27.50;60.00;;;;;;4992365;28;20538;-66
2022/06/23 09:49:40;;;;;;;8.03;2.23;;;27.50;55.20;;;;;;4991135;28;20570;-66
2022/06/23 09:52:34;;;;;;;4.53;2.10;;;27.60;56.90;;;;;;4992375;28;20531;-66
2022/06/23 09:55:38;;;;;;;5.07;1.83;;;27.60;56.00;;;;;;4990026;28;20447;-66
2022/06/23 09:58:27;;;;;;;9.87;3.30;;;27.70;56.50;;;;;;4990771;28;20478;-66
2022/06/23 10:01:09;;;;;;;7.60;2.70;;;27.80;56.00;;;;;;4988822;28;20495;-66
2022/06/23 10:03:50;;;;;;;4.67;3.20;;;27.90;58.40;;;;;;4991039;28;20530;-66
2022/06/23 10:06:36;;;;;;;8.93;1.83;;;27.90;57.30;;;;;;4990037;28;20478;-66
2022/06/23 10:09:12;;;;;;;5.37;2.13;;;28.00;58.80;;;;;;4989184;28;20531;-68
2022/06/23 10:11:53;;;;;;;4.90;2.33;;;28.20;58.40;;;;;;4990771;28;20526;-66
2022/06/23 10:14:49;;;;;;;6.40;2.33;;;28.30;57.60;;;;;;4991743;28;20524;-66
2022/06/23 10:17:32;;;;;;;6.07;2.57;;;28.40;57.30;;;;;;4989957;28;20959;-66
2022/06/23 10:20:26;;;;;;;10.10;2.30;;;28.40;53.50;;;;;;4989827;28;20451;-65
2022/06/23 10:23:24;;;;;;;5.90;2.10;;;28.40;53.80;;;;;;4985654;28;20547;-66
2022/06/23 10:26:18;;;;;;;7.30;1.80;;;28.50;53.10;;;;;;4992411;28;20538;-66
2022/06/23 10:29:15;;;;;;;5.37;1.93;;;28.50;53.50;;;;;;4990312;28;20571;-65
2022/06/23 10:32:01;;;;;;;6.23;2.30;;;28.50;52.00;;;;;;4990191;28;20518;-65
2022/06/23 10:34:43;;;;;;;7.27;2.00;;;28.60;52.10;;;;;;4990068;28;20535;-66
2022/06/23 10:37:30;;;;;;;5.23;1.70;;;28.60;49.80;;;;;;4992314;28;20475;-65
2022/06/23 10:40:15;;;;;;;5.73;1.80;;;28.60;52.30;;;;;;4991865;28;20522;-65
2022/06/23 10:43:11;;;;;;;5.30;1.40;;;28.60;52.50;;;;;;4992280;28;20446;-65
2022/06/23 10:45:44;;;;;;;5.97;1.77;;;28.60;50.80;;;;;;4957153;28;20518;-67
2022/06/23 10:48:55;;;;;;;4.23;1.30;;;28.60;50.20;;;;;;4992013;28;20446;-65
2022/06/23 10:51:48;;;;;;;5.97;2.13;;;28.60;51.00;;;;;;4991003;28;20495;-66
2022/06/23 10:54:38;;;;;;;6.30;1.70;;;28.70;52.40;;;;;;4987582;28;20482;-65
2022/06/23 10:57:41;;;;;;;4.40;1.40;;;28.80;52.80;;;;;;4991766;28;20526;-65
2022/06/23 11:00:12;;;;;;;6.30;2.10;;;28.90;52.80;;;;;;4911564;29;20529;-65
2022/06/23 11:03:09;;;;;;;6.10;2.10;;;29.00;53.90;;;;;;4978123;28;20455;-66
2022/06/23 11:05:48;;;;;;;7.00;1.77;;;29.10;53.60;;;;;;4984984;28;20543;-65
2022/06/23 11:08:44;;;;;;;5.83;1.90;;;29.20;52.40;;;;;;4991205;28;20474;-65
2022/06/23 11:11:28;;;;;;;5.63;1.90;;;29.20;48.20;;;;;;4991574;28;20515;-66
2022/06/23 11:14:05;;;;;;;5.03;1.33;;;29.20;50.50;;;;;;4991436;28;20479;-66
2022/06/23 11:16:52;;;;;;;9.03;2.20;;;29.30;53.60;;;;;;4991973;28;20502;-66
2022/06/23 11:19:34;;;;;;;4.50;1.60;;;29.40;50.70;;;;;;4988735;28;20526;-66
2022/06/23 11:22:16;;;;;;;9.13;2.17;;;29.50;50.30;;;;;;4991354;28;20788;-65
2022/06/23 11:24:56;;;;;;;4.50;1.60;;;29.50;49.10;;;;;;4991642;28;20475;-66
2022/06/23 11:27:33;;;;;;;5.80;1.50;;;29.50;48.90;;;;;;4991371;28;20484;-65
2022/06/23 11:30:15;;;;;;;5.10;2.07;;;29.50;50.80;;;;;;4989999;28;20582;-66
2022/06/23 11:33:06;;;;;;;5.70;1.73;;;29.60;50.20;;;;;;4989268;28;20475;-66
2022/06/23 11:35:58;;;;;;;6.60;2.30;;;29.60;50.10;;;;;;4988732;28;20451;-66
2022/06/23 11:38:56;;;;;;;8.73;2.27;;;29.70;51.30;;;;;;4988119;28;20440;-65
2022/06/23 11:41:50;;;;;;;4.20;1.93;;;29.70;49.00;;;;;;4990515;28;20612;-65
2022/06/23 11:44:28;;;;;;;8.40;2.03;;;29.70;45.70;;;;;;4994793;28;20486;-66
2022/06/23 11:47:01;;;;;;;4.40;1.30;;;29.70;46.90;;;;;;4991738;28;20534;-65
2022/06/23 11:49:48;;;;;;;8.77;2.27;;;29.70;49.10;;;;;;4994821;28;20526;-65
2022/06/23 11:52:36;;;;;;;7.30;2.50;;;29.80;47.30;;;;;;4993433;28;20476;-66
2022/06/23 11:55:23;;;;;;;5.60;1.67;;;29.80;47.00;;;;;;4993906;28;20471;-66
2022/06/23 11:58:32;;;;;;;6.20;2.00;;;29.80;46.30;;;;;;4987197;28;20474;-66
2022/06/23 12:01:14;;;;;;;4.57;2.00;;;29.70;47.20;;;;;;4936214;29;20446;-66
2022/06/23 12:04:00;;;;;;;8.20;2.10;;;29.70;46.70;;;;;;4988835;28;20961;-66
2022/06/23 12:06:36;;;;;;;5.00;1.40;;;29.70;47.00;;;;;;4996158;28;20448;-65
2022/06/23 12:09:12;;;;;;;3.13;1.73;;;29.70;49.40;;;;;;4996514;28;20940;-65
2022/06/23 12:11:39;;;;;;;12.13;2.50;;;29.80;49.20;;;;;;4996567;28;20578;-66
2022/06/23 12:14:09;;;;;;;4.80;1.90;;;29.90;49.80;;;;;;4996459;28;20514;-66
2022/06/23 12:16:40;;;;;;;8.63;1.90;;;29.90;48.60;;;;;;4995993;28;20440;-66
2022/06/23 12:19:12;;;;;;;8.83;1.87;;;30.00;48.20;;;;;;4996473;28;20467;-65
2022/06/23 12:21:48;;;;;;;8.63;2.50;;;30.00;49.50;;;;;;4996332;28;20487;-66
2022/06/23 12:24:30;;;;;;;7.53;1.80;;;30.00;47.70;;;;;;4996287;28;20848;-66
2022/06/23 12:27:05;;;;;;;5.97;2.07;;;30.00;48.20;;;;;;4996156;28;20483;-65
2022/06/23 12:29:40;;;;;;;4.50;1.77;;;30.00;46.40;;;;;;4995640;28;20525;-65
2022/06/23 12:32:14;;;;;;;6.10;2.07;;;30.00;47.70;;;;;;4996388;28;20522;-66
2022/06/23 12:34:51;;;;;;;6.17;2.07;;;30.00;51.20;;;;;;4996289;28;20523;-65
2022/06/23 12:37:26;;;;;;;3.77;1.40;;;30.10;48.70;;;;;;4996124;28;20475;-65
2022/06/23 12:40:02;;;;;;;5.60;2.00;;;30.10;47.80;;;;;;4995856;28;20438;-65
2022/06/23 12:42:35;;;;;;;5.60;2.03;;;30.20;48.30;;;;;;4996187;28;20451;-65
2022/06/23 12:45:30;;;;;;;6.40;1.63;;;30.30;49.40;;;;;;4995702;28;20448;-65
2022/06/23 12:48:13;;;;;;;7.20;2.33;;;30.30;48.00;;;;;;4995999;28;20937;-66
2022/06/23 12:50:55;;;;;;;4.30;1.90;;;30.30;47.10;;;;;;4995587;28;20573;-65
2022/06/23 12:53:42;;;;;;;5.17;1.80;;;30.30;47.20;;;;;;4994894;28;20534;-65
2022/06/23 12:56:26;;;;;;;4.30;2.10;;;30.20;46.20;;;;;;4985841;28;20498;-65
2022/06/23 12:58:58;;;;;;;8.53;2.37;;;30.30;46.80;;;;;;4995318;28;20526;-65
2022/06/23 13:01:40;;;;;;;4.47;2.30;;;30.20;45.50;;;;;;4995726;28;20456;-65
2022/06/23 13:04:13;;;;;;;7.50;2.40;;;30.20;47.30;;;;;;4995772;28;20498;-66
2022/06/23 13:06:47;;;;;;;4.43;1.53;;;30.20;46.40;;;;;;4995594;28;20549;-65
2022/06/23 13:09:29;;;;;;;4.03;1.80;;;30.20;46.10;;;;;;4995341;28;20438;-65
2022/06/23 13:12:03;;;;;;;4.93;1.97;;;30.20;46.50;;;;;;4995256;28;20964;-65
2022/06/23 13:14:36;;;;;;;4.43;1.80;;;30.20;47.00;;;;;;4995342;28;20537;-66
2022/06/23 13:17:10;;;;;;;5.80;2.80;;;30.20;47.40;;;;;;4995211;28;20560;-66
2022/06/23 13:19:43;;;;;;;3.40;1.47;;;30.20;45.20;;;;;;4995395;28;20439;-66
2022/06/23 13:22:11;;;;;;;6.70;2.00;;;30.20;45.50;;;;;;4994930;28;20523;-66
2022/06/23 13:24:43;;;;;;;6.93;2.37;;;30.10;44.70;;;;;;4995150;28;20523;-65
2022/06/23 13:27:19;;;;;;;10.83;2.10;;;30.10;46.20;;;;;;4995214;28;20440;-65
2022/06/23 13:29:53;;;;;;;7.63;2.70;;;30.10;45.20;;;;;;4994392;28;20486;-65
2022/06/23 13:32:28;;;;;;;6.97;2.07;;;30.10;46.20;;;;;;4995099;28;20447;-65
2022/06/23 13:35:01;;;;;;;8.13;1.80;;;30.10;46.10;;;;;;4994770;28;20623;-65
2022/06/23 13:37:39;;;;;;;6.17;2.23;;;30.10;45.20;;;;;;4994696;28;20490;-65
2022/06/23 13:40:22;;;;;;;8.60;1.67;;;30.10;46.80;;;;;;4994973;28;20997;-65
2022/06/23 13:42:55;;;;;;;10.77;2.50;;;30.20;46.90;;;;;;4994483;28;20853;-65